createdAt,value
2023-04-15T00:01:12.140Z,72.38
2023-04-15T00:03:39.306Z,72.21
2023-04-15T00:06:06.190Z,72.89
2023-04-15T00:08:33.324Z,72.88
2023-04-15T00:11:05.861Z,72.47
2023-04-15T00:13:35.328Z,72.40
2023-04-15T00:16:04.789Z,72.79
2023-04-15T00:18:37.504Z,72.27
2023-04-15T00:21:05.244Z,72.12
2023-04-15T00:23:34.395Z,72.57
2023-04-15T00:26:03.592Z,72.97
2023-04-15T00:28:33.654Z,72.78
2023-04-15T00:31:02.521Z,72.46
2023-04-15T00:33:34.281Z,72.55
2023-04-15T00:36:03.770Z,73.29
2023-04-15T00:38:30.333Z,72.54
2023-04-15T00:40:59.334Z,72.08
2023-04-15T00:43:26.729Z,72.55
2023-04-15T00:45:59.165Z,72.33
2023-04-15T00:48:28.091Z,72.77
2023-04-15T00:50:54.688Z,73.05
2023-04-15T00:53:21.821Z,72.07
2023-04-15T00:55:48.630Z,73.10
2023-04-15T00:58:20.704Z,72.40
2023-04-15T01:00:47.922Z,72.88
2023-04-15T01:03:16.931Z,72.97
2023-04-15T01:05:43.602Z,72.98
2023-04-15T01:08:11.452Z,73.29
2023-04-15T01:10:40.073Z,72.94
2023-04-15T01:13:06.938Z,73.12
2023-04-15T01:15:38.044Z,72.77
2023-04-15T01:18:05.322Z,73.57
2023-04-15T01:20:34.170Z,72.34
2023-04-15T01:23:01.488Z,73.28
2023-04-15T01:25:34.886Z,72.72
2023-04-15T01:28:02.290Z,72.93
2023-04-15T01:30:29.368Z,72.81
2023-04-15T01:32:58.309Z,73.14
2023-04-15T01:35:25.093Z,72.84
2023-04-15T01:37:51.784Z,72.44
2023-04-15T01:40:20.784Z,72.72
2023-04-15T01:42:49.835Z,72.54
2023-04-15T01:45:16.733Z,72.11
2023-04-15T01:47:45.710Z,72.17
2023-04-15T01:50:14.458Z,72.52
2023-04-15T01:52:43.700Z,72.11
2023-04-15T01:55:14.044Z,72.04
2023-04-15T01:57:41.228Z,71.61
2023-04-15T02:00:08.544Z,72.32
2023-04-15T02:02:36.035Z,72.35
2023-04-15T02:05:05.677Z,71.73
2023-04-15T02:07:32.524Z,71.60
2023-04-15T02:09:59.213Z,72.08
2023-04-15T02:12:28.144Z,72.01
2023-04-15T02:14:57.011Z,71.82
2023-04-15T02:17:23.662Z,71.61
2023-04-15T02:19:52.679Z,71.83
2023-04-15T02:22:21.742Z,71.87
2023-04-15T02:24:48.589Z,71.11
2023-04-15T02:27:22.553Z,71.81
2023-04-15T02:29:51.453Z,71.68
2023-04-15T02:32:18.780Z,70.92
2023-04-15T02:34:47.635Z,72.13
2023-04-15T02:37:14.383Z,71.31
2023-04-15T02:39:43.645Z,71.70
2023-04-15T02:42:10.214Z,71.85
2023-04-15T02:44:36.875Z,71.63
2023-04-15T02:47:04.963Z,71.71
2023-04-15T02:49:31.584Z,71.24
2023-04-15T02:51:59.997Z,71.37
2023-04-15T02:54:29.987Z,71.73
2023-04-15T02:56:59.053Z,71.75
2023-04-15T02:59:25.862Z,71.50
2023-04-15T03:01:56.552Z,71.30
2023-04-15T03:04:23.230Z,71.54
2023-04-15T03:06:49.887Z,72.00
2023-04-15T03:09:18.698Z,71.94
2023-04-15T03:11:45.317Z,71.50
2023-04-15T03:14:14.024Z,71.41
2023-04-15T03:16:40.744Z,71.50
2023-04-15T03:19:07.520Z,71.30
2023-04-15T03:21:37.077Z,71.77
2023-04-15T03:24:06.907Z,70.93
2023-04-15T03:26:33.569Z,70.93
2023-04-15T03:29:03.019Z,71.46
2023-04-15T03:31:30.010Z,70.45
2023-04-15T03:33:58.972Z,71.29
2023-04-15T03:36:26.330Z,71.10
2023-04-15T03:38:56.223Z,71.27
2023-04-15T03:41:27.422Z,70.58
2023-04-15T03:43:54.200Z,71.00
2023-04-15T03:46:21.016Z,70.32
2023-04-15T03:48:48.353Z,70.71
2023-04-15T03:51:14.983Z,71.10
2023-04-15T03:53:41.577Z,70.03
2023-04-15T03:56:08.256Z,70.46
2023-04-15T03:58:34.876Z,70.03
2023-04-15T04:01:01.464Z,69.79
2023-04-15T04:03:30.410Z,69.97
2023-04-15T04:05:57.180Z,70.01
2023-04-15T04:08:23.742Z,70.16
2023-04-15T04:10:50.448Z,70.47
2023-04-15T04:13:17.158Z,69.77
2023-04-15T04:15:43.844Z,70.28
2023-04-15T04:18:10.479Z,70.60
2023-04-15T04:20:39.296Z,69.51
2023-04-15T04:23:06.117Z,69.78
2023-04-15T04:25:33.208Z,69.51
2023-04-15T04:27:59.832Z,70.56
2023-04-15T04:30:26.447Z,69.59
2023-04-15T04:32:53.229Z,69.92
2023-04-15T04:35:22.757Z,70.07
2023-04-15T04:37:49.352Z,70.28
2023-04-15T04:40:18.427Z,70.45
2023-04-15T04:42:45.179Z,69.95
2023-04-15T04:45:11.832Z,69.48
2023-04-15T04:47:38.489Z,69.72
2023-04-15T04:50:05.642Z,69.30
2023-04-15T04:52:32.230Z,69.58
2023-04-15T04:54:58.892Z,69.13
2023-04-15T04:57:25.583Z,69.68
2023-04-15T04:59:52.639Z,69.22
2023-04-15T05:02:23.890Z,69.16
2023-04-15T05:04:52.149Z,69.55
2023-04-15T05:07:20.863Z,69.08
2023-04-15T05:09:47.564Z,69.31
2023-04-15T05:12:16.431Z,68.77
2023-04-15T05:14:46.870Z,68.73
2023-04-15T05:17:15.832Z,68.87
2023-04-15T05:19:42.537Z,69.17
2023-04-15T05:22:09.213Z,68.47
2023-04-15T05:24:35.897Z,69.03
2023-04-15T05:27:02.846Z,68.55
2023-04-15T05:29:29.606Z,69.12
2023-04-15T05:31:59.043Z,68.33
2023-04-15T05:34:25.674Z,68.83
2023-04-15T05:36:52.700Z,68.91
2023-04-15T05:39:19.314Z,68.36
2023-04-15T05:41:45.951Z,68.23
2023-04-15T05:44:17.384Z,68.55
2023-04-15T05:46:48.563Z,68.76
2023-04-15T05:49:15.120Z,68.58
2023-04-15T05:51:41.768Z,68.99
2023-04-15T05:54:10.887Z,68.63
2023-04-15T05:56:39.787Z,68.34
2023-04-15T05:59:08.878Z,68.54
2023-04-15T06:01:37.856Z,68.13
2023-04-15T06:04:05.009Z,68.30
2023-04-15T06:06:32.625Z,67.87
2023-04-15T06:08:59.849Z,67.73
2023-04-15T06:11:27.386Z,68.32
2023-04-15T06:13:54.117Z,68.26
2023-04-15T06:16:20.781Z,68.08
2023-04-15T06:18:47.477Z,68.24
2023-04-15T06:21:14.246Z,67.94
2023-04-15T06:23:43.701Z,67.83
2023-04-15T06:26:12.605Z,68.10
2023-04-15T06:28:39.281Z,67.50
2023-04-15T06:31:06.480Z,67.57
2023-04-15T06:33:35.284Z,67.05
2023-04-15T06:36:02.475Z,67.81
2023-04-15T06:38:31.507Z,66.85
2023-04-15T06:40:58.267Z,66.71
2023-04-15T06:43:25.034Z,66.63
2023-04-15T06:45:56.636Z,66.54
2023-04-15T06:48:23.281Z,66.33
2023-04-15T06:50:55.269Z,66.03
2023-04-15T06:53:24.967Z,66.11
2023-04-15T06:55:53.787Z,65.88
2023-04-15T06:58:25.508Z,65.88
2023-04-15T07:00:53.281Z,66.20
2023-04-15T07:03:22.548Z,65.88
2023-04-15T07:05:49.146Z,65.75
2023-04-15T07:08:15.899Z,65.94
2023-04-15T07:10:42.675Z,65.81
2023-04-15T07:13:09.325Z,65.74
2023-04-15T07:15:38.194Z,65.61
2023-04-15T07:18:04.908Z,65.45
2023-04-15T07:20:31.835Z,65.61
2023-04-15T07:23:00.947Z,65.87
2023-04-15T07:25:27.601Z,65.87
2023-04-15T07:27:54.321Z,65.91
2023-04-15T07:30:20.974Z,65.22
2023-04-15T07:32:47.634Z,64.97
2023-04-15T07:35:14.778Z,64.94
2023-04-15T07:37:43.736Z,64.58
2023-04-15T07:40:11.086Z,64.35
2023-04-15T07:42:40.737Z,63.99
2023-04-15T07:45:10.940Z,63.85
2023-04-15T07:47:37.563Z,64.14
2023-04-15T07:50:04.593Z,63.94
2023-04-15T07:52:39.161Z,64.29
2023-04-15T07:55:10.864Z,64.40
2023-04-15T07:57:37.733Z,64.08
2023-04-15T08:00:05.866Z,64.71
2023-04-15T08:02:35.142Z,63.77
2023-04-15T08:05:04.453Z,63.96
2023-04-15T08:07:31.476Z,64.06
2023-04-15T08:09:58.101Z,64.03
2023-04-15T08:12:24.778Z,63.76
2023-04-15T08:14:52.266Z,63.73
2023-04-15T08:17:18.983Z,64.26
2023-04-15T08:19:48.463Z,63.07
2023-04-15T08:22:18.087Z,62.86
2023-04-15T08:24:47.729Z,61.76
2023-04-15T08:27:16.597Z,59.41
2023-04-15T08:29:45.662Z,58.63
2023-04-15T08:32:15.052Z,56.77
2023-04-15T08:34:44.195Z,55.75
2023-04-15T08:37:11.476Z,55.89
2023-04-15T08:39:39.244Z,55.44
2023-04-15T08:42:12.240Z,54.36
2023-04-15T08:44:40.382Z,53.76
2023-04-15T08:47:16.617Z,50.89
2023-04-15T08:49:43.554Z,50.77
2023-04-15T08:52:10.830Z,51.63
2023-04-15T08:54:38.907Z,50.90
2023-04-15T08:57:06.803Z,50.20
2023-04-15T08:59:35.730Z,48.98
2023-04-15T09:02:04.051Z,49.51
2023-04-15T09:04:32.994Z,48.76
2023-04-15T09:06:59.648Z,48.02
2023-04-15T09:09:27.438Z,48.34
2023-04-15T09:11:57.490Z,48.20
2023-04-15T09:14:24.271Z,47.66
2023-04-15T09:17:07.199Z,46.59
2023-04-15T09:19:34.660Z,46.49
2023-04-15T09:22:02.393Z,46.15
2023-04-15T09:24:40.422Z,45.62
2023-04-15T09:27:07.431Z,45.82
2023-04-15T09:29:37.533Z,44.96
2023-04-15T09:32:17.823Z,44.09
2023-04-15T09:34:44.779Z,43.94
2023-04-15T09:37:29.105Z,44.02
2023-04-15T09:39:59.106Z,45.31
2023-04-15T09:42:28.731Z,45.94
2023-04-15T09:44:57.955Z,46.60
2023-04-15T09:47:32.340Z,45.99
2023-04-15T09:50:01.278Z,46.69
2023-04-15T09:52:29.035Z,45.37
2023-04-15T09:55:00.907Z,45.46
2023-04-15T09:57:36.547Z,44.43
2023-04-15T10:00:08.464Z,44.26
2023-04-15T10:02:36.834Z,43.96
2023-04-15T10:05:06.359Z,43.96
2023-04-15T10:07:34.037Z,44.17
2023-04-15T10:10:02.577Z,44.56
2023-04-15T10:12:31.229Z,44.78
2023-04-15T10:15:06.056Z,44.30
2023-04-15T10:17:35.598Z,44.82
2023-04-15T10:20:04.929Z,45.39
2023-04-15T10:22:34.140Z,45.32
2023-04-15T10:25:02.917Z,45.34
2023-04-15T10:27:30.444Z,45.10
2023-04-15T10:29:57.559Z,45.10
2023-04-15T10:32:25.642Z,45.83
2023-04-15T10:34:54.580Z,46.33
2023-04-15T10:37:41.924Z,47.12
2023-04-15T10:40:27.405Z,46.59
2023-04-15T10:42:58.110Z,45.89
2023-04-15T10:45:37.255Z,45.88
2023-04-15T10:48:08.944Z,46.09
2023-04-15T10:50:39.873Z,45.81
2023-04-15T10:53:06.639Z,46.54
2023-04-15T10:55:34.208Z,46.38
2023-04-15T10:58:02.264Z,45.93
2023-04-15T11:00:31.538Z,46.17
2023-04-15T11:03:12.298Z,45.40
2023-04-15T11:05:41.792Z,45.77
2023-04-15T11:08:09.992Z,46.00
2023-04-15T11:10:36.642Z,46.87
2023-04-15T11:13:05.628Z,46.88
2023-04-15T11:15:46.513Z,46.60
2023-04-15T11:18:18.049Z,46.30
2023-04-15T11:20:50.691Z,45.76
2023-04-15T11:23:38.895Z,45.88
2023-04-15T11:26:10.231Z,46.22
2023-04-15T11:28:39.064Z,45.63
2023-04-15T11:31:11.423Z,45.52
2023-04-15T11:33:39.940Z,45.63
2023-04-15T11:36:06.906Z,45.63
2023-04-15T11:38:34.605Z,47.11
2023-04-15T11:41:01.339Z,47.31
2023-04-15T11:43:31.037Z,47.83
2023-04-15T11:45:59.794Z,47.93
2023-04-15T11:48:32.683Z,48.47
2023-04-15T11:51:07.750Z,48.13
2023-04-15T11:53:43.209Z,47.94
2023-04-15T11:56:10.669Z,47.21
2023-04-15T11:58:38.572Z,47.75
2023-04-15T12:01:07.849Z,47.13
2023-04-15T12:03:48.400Z,46.74
2023-04-15T12:06:19.667Z,47.27
2023-04-15T12:08:52.881Z,47.75
2023-04-15T12:11:34.174Z,47.48
2023-04-15T12:14:22.788Z,47.42
2023-04-15T12:16:54.019Z,48.08
2023-04-15T12:19:25.343Z,48.15
2023-04-15T12:21:54.120Z,47.87
2023-04-15T12:24:25.073Z,47.91
2023-04-15T12:26:54.946Z,47.93
2023-04-15T12:29:27.851Z,48.06
2023-04-15T12:32:21.992Z,47.63
2023-04-15T12:34:54.504Z,47.32
2023-04-15T12:37:21.922Z,47.35
2023-04-15T12:39:50.216Z,47.75
2023-04-15T12:42:17.852Z,47.28
2023-04-15T12:44:44.875Z,46.61
2023-04-15T12:47:12.445Z,46.51
2023-04-15T12:49:39.855Z,46.75
2023-04-15T12:52:06.805Z,46.76
2023-04-15T12:54:36.442Z,46.89
2023-04-15T12:57:06.796Z,46.69
2023-04-15T12:59:36.718Z,46.79
2023-04-15T13:02:03.991Z,46.43
2023-04-15T13:04:31.724Z,47.23
2023-04-15T13:06:58.523Z,46.24
2023-04-15T13:09:27.328Z,46.84
2023-04-15T13:11:54.637Z,46.47
2023-04-15T13:14:21.566Z,46.38
2023-04-15T13:16:48.450Z,46.15
2023-04-15T13:19:15.145Z,45.76
2023-04-15T13:21:44.198Z,46.19
2023-04-15T13:24:13.324Z,46.25
2023-04-15T13:26:39.949Z,46.53
2023-04-15T13:29:06.888Z,46.06
2023-04-15T13:31:33.600Z,46.25
2023-04-15T13:34:02.726Z,46.51
2023-04-15T13:36:29.584Z,46.48
2023-04-15T13:38:57.088Z,46.16
2023-04-15T13:41:28.225Z,46.54
2023-04-15T13:43:54.851Z,46.17
2023-04-15T13:46:21.500Z,45.94
2023-04-15T13:48:48.164Z,46.12
2023-04-15T13:51:14.926Z,45.39
2023-04-15T13:53:41.718Z,45.18
2023-04-15T13:56:11.231Z,46.65
2023-04-15T13:58:38.592Z,45.97
2023-04-15T14:01:07.027Z,45.81
2023-04-15T14:03:40.581Z,46.00
2023-04-15T14:06:07.425Z,45.84
2023-04-15T14:08:36.548Z,45.70
2023-04-15T14:11:03.246Z,45.47
2023-04-15T14:13:30.054Z,45.09
2023-04-15T14:15:59.398Z,44.51
2023-04-15T14:18:26.250Z,44.59
2023-04-15T14:20:52.869Z,44.50
2023-04-15T14:23:19.663Z,44.83
2023-04-15T14:25:48.172Z,44.40
2023-04-15T14:28:15.426Z,44.32
2023-04-15T14:30:42.148Z,44.51
2023-04-15T14:33:08.847Z,43.70
2023-04-15T14:35:35.946Z,43.43
2023-04-15T14:38:06.097Z,43.08
2023-04-15T14:40:33.834Z,42.56
2023-04-15T14:43:03.473Z,43.00
2023-04-15T14:45:30.999Z,43.13
2023-04-15T14:47:57.706Z,43.11
2023-04-15T14:50:26.822Z,43.54
2023-04-15T14:52:55.827Z,43.24
2023-04-15T14:55:22.705Z,43.52
2023-04-15T14:57:51.558Z,43.46
2023-04-15T15:00:18.299Z,44.07
2023-04-15T15:02:45.390Z,43.76
2023-04-15T15:05:12.553Z,43.84
2023-04-15T15:07:42.165Z,43.87
2023-04-15T15:10:09.287Z,43.75
2023-04-15T15:12:36.443Z,43.90
2023-04-15T15:15:15.755Z,43.56
2023-04-15T15:17:54.402Z,44.01
2023-04-15T15:20:24.271Z,43.50
2023-04-15T15:22:53.330Z,43.18
2023-04-15T15:25:25.984Z,43.40
2023-04-15T15:27:54.944Z,43.51
2023-04-15T15:30:21.587Z,43.75
2023-04-15T15:32:50.696Z,43.44
2023-04-15T15:35:17.461Z,43.14
2023-04-15T15:37:46.384Z,43.30
2023-04-15T15:40:13.191Z,43.29
2023-04-15T15:42:39.838Z,43.19
2023-04-15T15:45:07.102Z,43.38
2023-04-15T15:47:36.336Z,43.27
2023-04-15T15:50:05.526Z,42.88
2023-04-15T15:52:32.865Z,43.12
2023-04-15T15:54:59.558Z,43.40
2023-04-15T15:57:26.247Z,42.78
2023-04-15T16:00:07.917Z,43.22
2023-04-15T16:03:05.072Z,43.83
2023-04-15T16:05:29.282Z,43.29
2023-04-15T16:07:55.967Z,43.95
2023-04-15T16:10:22.620Z,44.20
2023-04-15T16:12:49.413Z,44.14
2023-04-15T16:15:16.099Z,43.34
2023-04-15T16:17:42.770Z,43.78
2023-04-15T16:20:09.812Z,43.56
2023-04-15T16:22:36.538Z,43.22
2023-04-15T16:25:05.716Z,43.52
2023-04-15T16:27:38.510Z,43.88
2023-04-15T16:30:14.407Z,43.93
2023-04-15T16:32:41.316Z,43.97
2023-04-15T16:35:08.476Z,44.41
2023-04-15T16:37:36.195Z,43.96
2023-04-15T16:40:04.290Z,44.61
2023-04-15T16:42:31.127Z,44.51
2023-04-15T16:45:00.628Z,44.73
2023-04-15T16:47:29.559Z,44.62
2023-04-15T16:49:56.437Z,44.42
2023-04-15T16:52:23.051Z,44.72
2023-04-15T16:54:49.719Z,44.58
2023-04-15T16:57:16.397Z,44.26
2023-04-15T16:59:45.490Z,44.93
2023-04-15T17:02:13.830Z,44.48
2023-04-15T17:04:43.302Z,44.63
2023-04-15T17:07:12.512Z,44.86
2023-04-15T17:09:40.442Z,44.55
2023-04-15T17:12:07.737Z,44.79
2023-04-15T17:14:36.878Z,44.21
2023-04-15T17:17:03.536Z,44.40
2023-04-15T17:19:32.722Z,44.77
2023-04-15T17:22:02.306Z,44.89
2023-04-15T17:24:29.028Z,45.22
2023-04-15T17:26:57.726Z,44.87
2023-04-15T17:29:24.924Z,45.15
2023-04-15T17:31:51.607Z,44.90
2023-04-15T17:34:18.399Z,45.07
2023-04-15T17:36:45.239Z,44.77
2023-04-15T17:39:12.042Z,45.58
2023-04-15T17:41:41.618Z,45.80
2023-04-15T17:44:08.232Z,45.77
2023-04-15T17:46:35.028Z,45.88
2023-04-15T17:49:01.979Z,45.96
2023-04-15T17:51:28.579Z,45.33
2023-04-15T17:53:58.130Z,46.22
2023-04-15T17:56:27.918Z,46.43
2023-04-15T17:58:55.639Z,46.59
2023-04-15T18:01:24.712Z,46.14
2023-04-15T18:03:51.598Z,46.28
2023-04-15T18:06:21.368Z,46.11
2023-04-15T18:08:59.242Z,46.22
2023-04-15T18:11:26.168Z,46.67
2023-04-15T18:13:52.777Z,47.12
2023-04-15T18:16:19.596Z,46.60
2023-04-15T18:18:46.304Z,47.49
2023-04-15T18:21:13.845Z,46.99
2023-04-15T18:23:43.650Z,47.38
2023-04-15T18:26:13.282Z,47.31
2023-04-15T18:28:39.976Z,47.38
2023-04-15T18:31:06.680Z,47.62
2023-04-15T18:33:35.862Z,48.34
2023-04-15T18:36:02.717Z,48.71
2023-04-15T18:38:34.120Z,48.89
2023-04-15T18:41:03.007Z,48.48
2023-04-15T18:43:32.340Z,48.77
2023-04-15T18:46:00.129Z,49.57
2023-04-15T18:48:27.273Z,49.14
2023-04-15T18:50:54.076Z,49.41
2023-04-15T18:53:21.652Z,49.80
2023-04-15T18:55:48.416Z,49.80
2023-04-15T18:58:15.121Z,50.03
2023-04-15T19:00:43.941Z,50.19
2023-04-15T19:03:11.589Z,50.69
2023-04-15T19:05:38.475Z,50.57
2023-04-15T19:08:05.470Z,51.53
2023-04-15T19:10:34.350Z,51.30
2023-04-15T19:13:01.189Z,51.70
2023-04-15T19:15:29.110Z,51.79
2023-04-15T19:17:55.897Z,52.04
2023-04-15T19:20:22.630Z,52.12
2023-04-15T19:22:49.373Z,52.63
2023-04-15T19:25:15.994Z,52.63
2023-04-15T19:27:44.970Z,52.96
2023-04-15T19:30:11.763Z,53.09
2023-04-15T19:32:40.533Z,52.93
2023-04-15T19:35:11.646Z,53.43
2023-04-15T19:37:38.538Z,54.46
2023-04-15T19:40:08.680Z,54.45
2023-04-15T19:42:35.407Z,54.64
2023-04-15T19:45:02.177Z,54.94
2023-04-15T19:47:36.275Z,55.27
2023-04-15T19:50:07.468Z,55.28
2023-04-15T19:52:34.608Z,55.67
2023-04-15T19:55:03.850Z,55.43
2023-04-15T19:57:30.466Z,56.38
2023-04-15T19:59:59.516Z,56.13
2023-04-15T20:02:26.380Z,56.69
2023-04-15T20:04:55.630Z,56.31
2023-04-15T20:07:22.265Z,56.42
2023-04-15T20:09:49.097Z,56.70
2023-04-15T20:12:50.257Z,56.82
2023-04-15T20:15:03.539Z,57.27
2023-04-15T20:17:33.262Z,57.46
2023-04-15T20:19:59.900Z,56.96
2023-04-15T20:22:26.736Z,57.69
2023-04-15T20:24:53.380Z,57.86
2023-04-15T20:27:23.096Z,57.96
2023-04-15T20:29:52.538Z,58.22
2023-04-15T20:32:19.242Z,58.55
2023-04-15T20:34:48.243Z,58.04
2023-04-15T20:37:17.700Z,58.77
2023-04-15T20:39:46.514Z,58.87
2023-04-15T20:42:13.256Z,59.01
2023-04-15T20:44:42.404Z,58.67
2023-04-15T20:47:09.014Z,59.08
2023-04-15T20:49:39.637Z,59.65
2023-04-15T20:52:07.855Z,59.18
2023-04-15T20:54:34.669Z,59.12
2023-04-15T20:57:01.847Z,59.43
2023-04-15T20:59:28.577Z,60.08
2023-04-15T21:01:57.022Z,59.73
2023-04-15T21:04:24.626Z,59.93
2023-04-15T21:06:52.354Z,59.43
2023-04-15T21:09:19.206Z,59.78
2023-04-15T21:12:00.499Z,60.24
2023-04-15T21:14:30.410Z,60.26
2023-04-15T21:16:58.159Z,60.07
2023-04-15T21:19:27.019Z,60.14
2023-04-15T21:21:53.613Z,59.99
2023-04-15T21:24:22.730Z,60.13
2023-04-15T21:26:49.486Z,60.51
2023-04-15T21:29:16.187Z,59.94
2023-04-15T21:31:42.923Z,60.65
2023-04-15T21:34:12.615Z,60.23
2023-04-15T21:36:41.462Z,60.50
2023-04-15T21:39:08.285Z,60.74
2023-04-15T21:41:37.777Z,61.03
2023-04-15T21:44:04.507Z,61.04
2023-04-15T21:46:32.684Z,61.56
2023-04-15T21:49:01.318Z,61.24
2023-04-15T21:51:28.150Z,61.59
2023-04-15T21:53:54.870Z,61.70
2023-04-15T21:56:24.713Z,61.74
2023-04-15T21:58:56.489Z,61.68
2023-04-15T22:01:23.948Z,61.41
2023-04-15T22:03:53.165Z,61.73
2023-04-15T22:06:22.407Z,61.84
2023-04-15T22:08:56.832Z,62.00
2023-04-15T22:11:27.661Z,61.90
2023-04-15T22:13:55.055Z,62.19
2023-04-15T22:16:21.850Z,62.60
2023-04-15T22:18:48.724Z,62.71
2023-04-15T22:21:20.038Z,62.66
2023-04-15T22:23:48.039Z,62.56
2023-04-15T22:26:15.157Z,63.16
2023-04-15T22:28:42.179Z,63.38
2023-04-15T22:31:09.027Z,63.66
2023-04-15T22:33:35.775Z,64.12
2023-04-15T22:36:04.776Z,63.89
2023-04-15T22:38:31.531Z,64.25
2023-04-15T22:40:58.491Z,64.38
2023-04-15T22:43:27.876Z,64.44
2023-04-15T22:45:55.129Z,64.45
2023-04-15T22:48:22.627Z,64.72
2023-04-15T22:50:49.583Z,64.90
2023-04-15T22:53:17.412Z,65.13
2023-04-15T22:55:47.949Z,64.85
2023-04-15T22:58:15.398Z,64.62
2023-04-15T23:00:42.276Z,64.54
2023-04-15T23:03:09.163Z,65.13
2023-04-15T23:05:40.120Z,64.86
2023-04-15T23:08:07.615Z,64.87
2023-04-15T23:10:34.307Z,65.01
2023-04-15T23:13:00.949Z,64.92
2023-04-15T23:15:29.795Z,64.48
2023-04-15T23:17:56.576Z,64.61
2023-04-15T23:20:23.490Z,64.14
2023-04-15T23:22:52.340Z,63.96
2023-04-15T23:25:22.262Z,64.35
2023-04-15T23:27:48.935Z,63.95
2023-04-15T23:30:15.597Z,64.16
2023-04-15T23:32:45.238Z,64.22
2023-04-15T23:35:11.927Z,64.64
2023-04-15T23:37:38.540Z,64.62
2023-04-15T23:40:06.069Z,63.88
2023-04-15T23:42:32.888Z,63.71
2023-04-15T23:44:59.531Z,64.17
2023-04-15T23:47:26.346Z,63.73
2023-04-15T23:49:53.115Z,64.36
2023-04-15T23:52:19.794Z,64.20
2023-04-15T23:54:46.455Z,63.61
2023-04-15T23:57:13.109Z,64.35
2023-04-15T23:59:42.148Z,64.20
